Sauk Centre, MN

3:32 PM CST on December 06, 2019 (GMT -0600)
Sauk Centre

Weather History for KD39 - October, 2019

Change the Weather History Date:

Wednesday, October 9, 2019

  Actual Average (KGHW) Record (KGHW)
Temperature  
Mean Temperature 60 °F -  
Max Temperature 71 °F 58 °F 82 °F (1999)
Min Temperature 50 °F 37 °F 6 °F (1998)
Degree Days  
Heating Degree Days 4    
Growing Degree Days 10 (Base 50)    
Moisture  
Dew Point 48 °F    
Average Humidity 68    
Maximum Humidity 86    
Minimum Humidity 48    
Precipitation  
Precipitation 0.00 in - - ()
Sea Level Pressure  
Sea Level Pressure 29.81 in    
Wind  
Wind Speed 13 mph ()    
Max Wind Speed 23 mph    
Max Gust Speed 31 mph    
Visibility 10.0 miles    
Events      
Averages and records for this station are not official NWS values.
T = Trace of Precipitation, MM = Missing Value Source: Averaged Metar Reports

Daily Weather History Graph

Daily Weather History Graph

Search for Another Location

Airport or City:

Astronomy

Oct. 09, 2019 Rise Set
Actual Time 7:28 AM CDT 6:45 PM CDT
Civil Twilight 6:58 AM CDT 7:14 PM CDT
Nautical Twilight 6:23 AM CDT 7:49 PM CDT
Astronomical Twilight 5:49 AM CDT 8:23 PM CDT
Moon 5:32 PM CDT (10/9) 2:57 AM CDT (10/9)
Length of Visible Light 12h 16m
Length of Day
11h 17m
Waxing Gibbous, 85% of the Moon is Illuminated
Oct 9
Waxing Gibbous
Oct 13
Full
Oct 21
Last Quarter
Oct 27
New
Nov 4
First Quarter

Hourly Weather History & Observations

Time (CDT) Temp. Dew Point Humidity Pressure Visibility Wind Dir Wind Speed Gust Speed Precip Events Conditions
12:15 AM 52.7 °F 43.5 °F 71% 29.83 in 10.0 mi SSE 10.4 mph - N/A   Clear
12:16 AM 52.7 °F 43.3 °F 70% 29.83 in 10.0 mi SSE 11.5 mph - N/A   Clear
12:39 AM 53.1 °F 43.7 °F 71% 29.82 in 10.0 mi SSE 11.5 mph - N/A   Clear
12:56 AM 53.1 °F 43.9 °F 71% 29.82 in 10.0 mi SSE 12.7 mph - N/A   Clear
1:15 AM 53.1 °F 43.9 °F 71% 29.82 in 10.0 mi SSE 13.8 mph - N/A   Clear
1:35 AM 52.7 °F 44.1 °F 72% 29.82 in 10.0 mi SSE 12.7 mph - N/A   Clear
1:36 AM 52.7 °F 44.1 °F 72% 29.82 in 10.0 mi SSE 12.7 mph - N/A   Clear
1:55 AM 52.0 °F 44.2 °F 75% 29.82 in 10.0 mi SSE 10.4 mph - N/A   Clear
2:00 AM 52.0 °F 44.4 °F 75% 29.82 in 10.0 mi SSE 10.4 mph - N/A   Clear
2:17 AM 51.8 °F 44.6 °F 76% 29.82 in 10.0 mi SSE 9.2 mph - N/A   Clear
2:36 AM 51.6 °F 44.6 °F 77% 29.82 in 10.0 mi SSE 11.5 mph - N/A   Clear
2:55 AM 51.1 °F 44.8 °F 79% 29.82 in 10.0 mi SSE 11.5 mph - N/A   Clear
3:15 AM 50.9 °F 44.8 °F 80% 29.81 in 10.0 mi SSE 9.2 mph - N/A   Clear
3:16 AM 50.9 °F 44.8 °F 80% 29.81 in 10.0 mi SSE 10.4 mph - N/A   Clear
3:39 AM 50.7 °F 45.0 °F 81% 29.80 in 10.0 mi SSE 12.7 mph - N/A   Clear
3:56 AM 50.5 °F 45.1 °F 82% 29.80 in 10.0 mi SSE 13.8 mph - N/A   Clear
4:16 AM 51.3 °F 45.5 °F 81% 29.80 in 10.0 mi SSE 15.0 mph 18.4 mph N/A   Clear
4:35 AM 51.3 °F 45.5 °F 81% 29.79 in 10.0 mi SSE 15.0 mph - N/A   Clear
4:36 AM 51.3 °F 45.5 °F 81% 29.79 in 10.0 mi SSE 13.8 mph - N/A   Clear
4:59 AM 51.3 °F 45.5 °F 81% 29.80 in 10.0 mi SSE 12.7 mph 18.4 mph N/A   Clear
5:16 AM 51.3 °F 45.7 °F 81% 29.79 in 10.0 mi SE 13.8 mph 18.4 mph N/A   Clear
5:36 AM 50.9 °F 45.7 °F 82% 29.79 in 10.0 mi SE 12.7 mph - N/A   Clear
5:55 AM 51.1 °F 45.9 °F 82% 29.79 in 10.0 mi SE 12.7 mph - N/A   Clear
6:15 AM 50.9 °F 46.0 °F 83% 29.79 in 10.0 mi SE 11.5 mph 17.3 mph N/A   Clear
6:19 AM 50.9 °F 46.2 °F 84% 29.79 in 10.0 mi SE 9.2 mph - N/A   Clear
6:38 AM 50.5 °F 46.2 °F 85% 29.79 in 10.0 mi SE 10.4 mph - N/A   Clear
6:55 AM 50.5 °F 46.4 °F 86% 29.79 in 10.0 mi SE 11.5 mph - N/A   Clear
7:15 AM 50.9 °F 46.4 °F 85% 29.80 in 10.0 mi SSE 12.7 mph - N/A   Clear
7:16 AM 50.9 °F 46.4 °F 85% 29.79 in 10.0 mi SE 11.5 mph - N/A   Clear
7:35 AM 50.7 °F 46.4 °F 85% 29.79 in 10.0 mi SE 11.5 mph - N/A   Clear
7:36 AM 50.7 °F 46.4 °F 85% 29.79 in 10.0 mi SE 10.4 mph - N/A   Clear
7:58 AM 51.3 °F 46.6 °F 84% 29.79 in 10.0 mi SE 9.2 mph - N/A   Clear
8:17 AM 51.8 °F 46.8 °F 83% 29.79 in 10.0 mi SSE 11.5 mph - N/A   Clear
8:36 AM 52.7 °F 46.9 °F 81% 29.79 in 10.0 mi SSE 12.7 mph - N/A   Clear
8:55 AM 54.0 °F 47.3 °F 78% 29.80 in 10.0 mi SSE 13.8 mph - N/A   Clear
8:56 AM 54.0 °F 47.3 °F 78% 29.80 in 10.0 mi SSE 12.7 mph - N/A   Clear
9:15 AM 55.2 °F 47.5 °F 75% 29.80 in 10.0 mi SSE 12.7 mph 20.7 mph N/A   Clear
9:19 AM 55.6 °F 47.7 °F 75% 29.80 in 10.0 mi SSE 16.1 mph 20.7 mph N/A   Clear
9:37 AM 56.7 °F 47.7 °F 72% 29.81 in 10.0 mi SSE 12.7 mph 23.0 mph N/A   Clear
9:55 AM 58.1 °F 48.2 °F 70% 29.80 in 10.0 mi SSE 17.3 mph 23.0 mph N/A   Clear
10:15 AM 59.0 °F 48.2 °F 67% 29.81 in 10.0 mi SSE 18.4 mph - N/A   Clear
10:35 AM 60.3 °F 48.2 °F 64% 29.80 in 10.0 mi SSE 20.7 mph 27.6 mph N/A   Clear
10:58 AM 61.5 °F 48.4 °F 62% 29.80 in 10.0 mi SSE 19.6 mph 27.6 mph N/A   Clear
11:17 AM 62.2 °F 48.4 °F 60% 29.80 in 10.0 mi SSE 20.7 mph 26.5 mph N/A   Clear
11:36 AM 63.5 °F 48.9 °F 59% 29.80 in 10.0 mi South 20.7 mph 26.5 mph N/A   Clear
11:55 AM 64.0 °F 49.1 °F 58% 29.80 in 10.0 mi South 17.3 mph 27.6 mph N/A   Clear
11:56 AM 64.2 °F 49.1 °F 58% 29.80 in 10.0 mi SSE 18.4 mph 27.6 mph N/A   Clear
12:15 PM 64.9 °F 48.9 °F 56% 29.79 in 10.0 mi South 18.4 mph - N/A   Clear
12:37 PM 66.0 °F 49.1 °F 54% 29.79 in 10.0 mi SSE 21.9 mph 27.6 mph N/A   Clear
12:55 PM 66.6 °F 49.3 °F 54% 29.79 in 10.0 mi South 23.0 mph - N/A   Clear
1:15 PM 68.0 °F 49.5 °F 51% 29.78 in 10.0 mi SSE 18.4 mph 26.5 mph N/A   Clear
1:16 PM 68.0 °F 49.5 °F 51% 29.78 in 10.0 mi SSE 19.6 mph 26.5 mph N/A   Clear
1:35 PM 68.9 °F 49.8 °F 51% 29.77 in 10.0 mi SSE 17.3 mph 28.8 mph N/A   Clear
1:57 PM 69.4 °F 49.6 °F 49% 29.77 in 10.0 mi SSE 19.6 mph 28.8 mph N/A   Clear
2:15 PM 70.0 °F 49.8 °F 49% 29.76 in 10.0 mi SSE 18.4 mph 25.3 mph N/A   Scattered Clouds
2:35 PM 69.8 °F 49.5 °F 48% 29.76 in 10.0 mi SSE 15.0 mph 25.3 mph N/A   Scattered Clouds
2:36 PM 69.8 °F 49.8 °F 49% 29.76 in 10.0 mi SSE 13.8 mph 25.3 mph N/A   Clear
2:55 PM 69.8 °F 50.0 °F 49% 29.76 in 10.0 mi SSE 20.7 mph 26.5 mph N/A   Clear
2:59 PM 69.8 °F 50.0 °F 49% 29.76 in 10.0 mi South 20.7 mph 27.6 mph N/A   Clear
3:16 PM 71.4 °F 50.7 °F 48% 29.77 in 10.0 mi SSE 23.0 mph 27.6 mph N/A   Scattered Clouds
3:36 PM 70.2 °F 49.6 °F 48% 29.77 in 10.0 mi SSE 21.9 mph 31.1 mph N/A   Scattered Clouds
4:15 PM 69.8 °F 50.5 °F 50% 29.77 in 10.0 mi SSE 19.6 mph 28.8 mph N/A   Scattered Clouds
4:19 PM 69.8 °F 50.4 °F 50% 29.77 in 10.0 mi SSE 15.0 mph 26.5 mph N/A   Clear
4:37 PM 68.7 °F 50.7 °F 53% 29.77 in 10.0 mi SSE 15.0 mph 20.7 mph N/A   Mostly Cloudy
4:56 PM 69.6 °F 50.9 °F 51% 29.78 in 10.0 mi South 16.1 mph 24.2 mph N/A   Mostly Cloudy
5:15 PM 68.0 °F 50.7 °F 54% 29.78 in 10.0 mi SSE 16.1 mph 20.7 mph N/A   Mostly Cloudy
5:35 PM 68.0 °F 50.2 °F 53% 29.79 in 10.0 mi South 17.3 mph 23.0 mph N/A   Overcast
5:39 PM 67.6 °F 50.2 °F 54% 29.79 in 10.0 mi SSE 15.0 mph 23.0 mph N/A   Overcast
5:57 PM 67.1 °F 50.2 °F 55% 29.80 in 10.0 mi SSE 13.8 mph 19.6 mph N/A   Overcast
6:15 PM 66.2 °F 51.1 °F 58% 29.81 in 10.0 mi South 16.1 mph 20.7 mph N/A   Overcast
6:35 PM 64.8 °F 50.7 °F 60% 29.82 in 10.0 mi South 15.0 mph 21.9 mph N/A   Overcast
6:36 PM 64.8 °F 50.7 °F 60% 29.82 in 10.0 mi SSE 16.1 mph 21.9 mph N/A   Overcast
6:55 PM 64.0 °F 50.2 °F 61% 29.82 in 10.0 mi SSE 12.7 mph - N/A   Overcast
6:59 PM 63.9 °F 50.2 °F 61% 29.82 in 10.0 mi SSE 12.7 mph - N/A   Overcast
7:17 PM 63.1 °F 50.2 °F 63% 29.83 in 10.0 mi SSE 15.0 mph 20.7 mph N/A   Overcast
7:36 PM 61.9 °F 50.0 °F 65% 29.84 in 10.0 mi SSE 11.5 mph - N/A   Mostly Cloudy
7:55 PM 60.8 °F 50.0 °F 68% 29.85 in 10.0 mi SE 9.2 mph - N/A   Mostly Cloudy
7:56 PM 61.0 °F 50.0 °F 67% 29.85 in 10.0 mi SE 8.1 mph - N/A   Mostly Cloudy
8:15 PM 61.2 °F 49.8 °F 66% 29.85 in 10.0 mi SE 11.5 mph - N/A   Overcast
8:37 PM 61.0 °F 49.3 °F 65% 29.86 in 10.0 mi SE 10.4 mph - N/A   Overcast
8:55 PM 61.0 °F 48.7 °F 64% 29.86 in 10.0 mi SE 12.7 mph - N/A   Overcast
9:15 PM 59.5 °F 48.6 °F 67% 29.87 in 10.0 mi SE 10.4 mph - N/A   Mostly Cloudy
9:16 PM 59.4 °F 48.6 °F 67% 29.87 in 10.0 mi SE 9.2 mph - N/A   Mostly Cloudy
9:35 PM 59.2 °F 48.6 °F 68% 29.88 in 10.0 mi SE 8.1 mph - N/A   Mostly Cloudy
9:36 PM 59.2 °F 48.7 °F 68% 29.88 in 10.0 mi SE 8.1 mph - N/A   Mostly Cloudy
9:57 PM 59.0 °F 48.7 °F 69% 29.88 in 10.0 mi SE 6.9 mph - N/A   Overcast
10:16 PM 58.5 °F 49.1 °F 71% 29.88 in 10.0 mi SE 11.5 mph - N/A   Overcast
10:35 PM 58.5 °F 49.1 °F 71% 29.89 in 10.0 mi SE 13.8 mph 17.3 mph N/A   Overcast
10:36 PM 58.6 °F 48.9 °F 70% 29.89 in 10.0 mi SE 13.8 mph 17.3 mph N/A   Overcast
10:55 PM 58.3 °F 48.6 °F 70% 29.89 in 10.0 mi SE 13.8 mph - N/A   Scattered Clouds
10:56 PM 58.3 °F 48.6 °F 70% 29.90 in 10.0 mi SE 13.8 mph - N/A   Scattered Clouds
11:18 PM 57.4 °F 48.4 °F 72% 29.91 in 10.0 mi SE 10.4 mph - N/A   Scattered Clouds
11:36 PM 55.8 °F 48.2 °F 76% 29.91 in 10.0 mi SE 9.2 mph - N/A   Clear
11:56 PM 54.7 °F 47.7 °F 77% 29.91 in 10.0 mi SE 8.1 mph - N/A   Clear